sensor_id;sensor_type;location;lat;lon;timestamp;P1;durP1;ratioP1;P2;durP2;ratioP2
7583;SDS011;3833;41.764;26.204;2022-07-05T00:00:41;3.60;;;3.27;;
7583;SDS011;3833;41.764;26.204;2022-07-05T00:03:08;4.00;;;2.60;;
7583;SDS011;3833;41.764;26.204;2022-07-05T00:05:34;3.03;;;2.73;;
7583;SDS011;3833;41.764;26.204;2022-07-05T00:08:01;3.27;;;2.97;;
7583;SDS011;3833;41.764;26.204;2022-07-05T00:10:29;5.30;;;3.30;;
7583;SDS011;3833;41.764;26.204;2022-07-05T00:12:56;4.27;;;2.80;;
7583;SDS011;3833;41.764;26.204;2022-07-05T00:15:22;2.90;;;2.60;;
7583;SDS011;3833;41.764;26.204;2022-07-05T00:17:49;3.53;;;2.70;;
7583;SDS011;3833;41.764;26.204;2022-07-05T00:20:15;6.03;;;2.53;;
7583;SDS011;3833;41.764;26.204;2022-07-05T00:22:42;3.73;;;2.83;;
7583;SDS011;3833;41.764;26.204;2022-07-05T00:25:09;4.43;;;2.43;;
7583;SDS011;3833;41.764;26.204;2022-07-05T00:27:37;4.80;;;3.03;;
7583;SDS011;3833;41.764;26.204;2022-07-05T00:30:03;4.27;;;2.93;;
7583;SDS011;3833;41.764;26.204;2022-07-05T00:32:30;3.50;;;3.10;;
7583;SDS011;3833;41.764;26.204;2022-07-05T00:34:57;4.63;;;3.00;;
7583;SDS011;3833;41.764;26.204;2022-07-05T00:37:23;5.67;;;3.20;;
7583;SDS011;3833;41.764;26.204;2022-07-05T00:39:50;4.67;;;3.20;;
7583;SDS011;3833;41.764;26.204;2022-07-05T00:42:17;4.00;;;3.30;;
7583;SDS011;3833;41.764;26.204;2022-07-05T00:44:45;4.77;;;3.17;;
7583;SDS011;3833;41.764;26.204;2022-07-05T00:47:12;3.27;;;2.97;;
7583;SDS011;3833;41.764;26.204;2022-07-05T00:49:39;4.63;;;3.37;;
7583;SDS011;3833;41.764;26.204;2022-07-05T00:52:06;5.30;;;3.37;;
7583;SDS011;3833;41.764;26.204;2022-07-05T00:54:34;7.03;;;3.40;;
7583;SDS011;3833;41.764;26.204;2022-07-05T00:57:00;4.73;;;3.70;;
7583;SDS011;3833;41.764;26.204;2022-07-05T00:59:30;4.03;;;3.40;;
7583;SDS011;3833;41.764;26.204;2022-07-05T01:01:58;5.00;;;3.70;;
7583;SDS011;3833;41.764;26.204;2022-07-05T01:04:25;5.07;;;3.43;;
7583;SDS011;3833;41.764;26.204;2022-07-05T01:06:51;4.03;;;3.63;;
7583;SDS011;3833;41.764;26.204;2022-07-05T01:09:19;5.33;;;3.50;;
7583;SDS011;3833;41.764;26.204;2022-07-05T01:11:46;4.03;;;3.37;;
7583;SDS011;3833;41.764;26.204;2022-07-05T01:14:13;4.60;;;3.83;;
7583;SDS011;3833;41.764;26.204;2022-07-05T01:16:39;7.03;;;3.33;;
7583;SDS011;3833;41.764;26.204;2022-07-05T01:19:07;4.43;;;3.43;;
7583;SDS011;3833;41.764;26.204;2022-07-05T01:21:36;7.07;;;3.93;;
7583;SDS011;3833;41.764;26.204;2022-07-05T01:24:05;6.70;;;4.67;;
7583;SDS011;3833;41.764;26.204;2022-07-05T01:26:31;6.33;;;4.77;;
7583;SDS011;3833;41.764;26.204;2022-07-05T01:28:58;4.50;;;4.10;;
7583;SDS011;3833;41.764;26.204;2022-07-05T01:31:25;6.37;;;4.50;;
7583;SDS011;3833;41.764;26.204;2022-07-05T01:33:51;7.57;;;5.07;;
7583;SDS011;3833;41.764;26.204;2022-07-05T01:36:21;8.07;;;5.33;;
7583;SDS011;3833;41.764;26.204;2022-07-05T01:38:48;7.30;;;5.70;;
7583;SDS011;3833;41.764;26.204;2022-07-05T01:41:16;5.70;;;4.73;;
7583;SDS011;3833;41.764;26.204;2022-07-05T01:43:43;5.40;;;4.10;;
7583;SDS011;3833;41.764;26.204;2022-07-05T01:46:09;7.27;;;4.60;;
7583;SDS011;3833;41.764;26.204;2022-07-05T01:48:37;6.33;;;4.20;;
7583;SDS011;3833;41.764;26.204;2022-07-05T01:51:05;4.67;;;4.27;;
7583;SDS011;3833;41.764;26.204;2022-07-05T01:53:33;5.87;;;4.23;;
7583;SDS011;3833;41.764;26.204;2022-07-05T01:56:01;5.60;;;4.90;;
7583;SDS011;3833;41.764;26.204;2022-07-05T01:58:29;5.50;;;5.00;;
7583;SDS011;3833;41.764;26.204;2022-07-05T02:00:56;5.50;;;5.00;;
7583;SDS011;3833;41.764;26.204;2022-07-05T02:03:22;5.63;;;4.70;;
7583;SDS011;3833;41.764;26.204;2022-07-05T02:05:49;5.63;;;5.13;;
7583;SDS011;3833;41.764;26.204;2022-07-05T02:08:16;7.70;;;5.87;;
7583;SDS011;3833;41.764;26.204;2022-07-05T02:10:43;7.60;;;6.10;;
7583;SDS011;3833;41.764;26.204;2022-07-05T02:13:10;8.63;;;6.37;;
7583;SDS011;3833;41.764;26.204;2022-07-05T02:15:40;5.63;;;5.13;;
7583;SDS011;3833;41.764;26.204;2022-07-05T02:18:07;5.93;;;4.47;;
7583;SDS011;3833;41.764;26.204;2022-07-05T02:20:34;4.70;;;4.27;;
7583;SDS011;3833;41.764;26.204;2022-07-05T02:23:01;7.33;;;3.83;;
7583;SDS011;3833;41.764;26.204;2022-07-05T02:25:27;6.90;;;4.63;;
7583;SDS011;3833;41.764;26.204;2022-07-05T02:27:54;5.97;;;3.57;;
7583;SDS011;3833;41.764;26.204;2022-07-05T02:30:20;5.67;;;3.97;;
7583;SDS011;3833;41.764;26.204;2022-07-05T02:32:48;4.10;;;3.70;;
7583;SDS011;3833;41.764;26.204;2022-07-05T02:35:15;3.67;;;3.30;;
7583;SDS011;3833;41.764;26.204;2022-07-05T02:37:44;5.27;;;4.10;;
7583;SDS011;3833;41.764;26.204;2022-07-05T02:40:12;8.37;;;4.07;;
7583;SDS011;3833;41.764;26.204;2022-07-05T02:42:39;9.43;;;3.83;;
7583;SDS011;3833;41.764;26.204;2022-07-05T02:45:06;4.00;;;3.60;;
7583;SDS011;3833;41.764;26.204;2022-07-05T02:47:33;3.67;;;3.20;;
7583;SDS011;3833;41.764;26.204;2022-07-05T02:50:04;4.60;;;3.97;;
7583;SDS011;3833;41.764;26.204;2022-07-05T02:52:30;3.20;;;2.90;;
7583;SDS011;3833;41.764;26.204;2022-07-05T02:54:57;6.77;;;3.03;;
7583;SDS011;3833;41.764;26.204;2022-07-05T02:57:23;8.47;;;3.57;;
7583;SDS011;3833;41.764;26.204;2022-07-05T02:59:52;8.27;;;3.67;;
7583;SDS011;3833;41.764;26.204;2022-07-05T03:02:18;3.70;;;3.40;;
7583;SDS011;3833;41.764;26.204;2022-07-05T03:04:45;6.63;;;4.13;;
7583;SDS011;3833;41.764;26.204;2022-07-05T03:07:13;7.40;;;4.47;;
7583;SDS011;3833;41.764;26.204;2022-07-05T03:09:40;5.87;;;4.53;;
7583;SDS011;3833;41.764;26.204;2022-07-05T03:12:07;6.90;;;4.43;;
7583;SDS011;3833;41.764;26.204;2022-07-05T03:14:33;6.67;;;4.63;;
7583;SDS011;3833;41.764;26.204;2022-07-05T03:17:00;4.80;;;4.10;;
7583;SDS011;3833;41.764;26.204;2022-07-05T03:19:27;10.50;;;4.67;;
7583;SDS011;3833;41.764;26.204;2022-07-05T03:21:53;6.47;;;3.60;;
7583;SDS011;3833;41.764;26.204;2022-07-05T03:24:24;9.03;;;3.90;;
7583;SDS011;3833;41.764;26.204;2022-07-05T03:26:50;5.97;;;4.43;;
7583;SDS011;3833;41.764;26.204;2022-07-05T03:29:17;10.63;;;4.33;;
7583;SDS011;3833;41.764;26.204;2022-07-05T03:31:43;10.50;;;4.00;;
7583;SDS011;3833;41.764;26.204;2022-07-05T03:34:10;5.23;;;4.17;;
7583;SDS011;3833;41.764;26.204;2022-07-05T03:36:36;4.97;;;3.47;;
7583;SDS011;3833;41.764;26.204;2022-07-05T03:39:03;3.83;;;3.43;;
7583;SDS011;3833;41.764;26.204;2022-07-05T03:41:31;5.17;;;3.80;;
7583;SDS011;3833;41.764;26.204;2022-07-05T03:43:57;9.57;;;3.80;;
7583;SDS011;3833;41.764;26.204;2022-07-05T03:46:24;6.80;;;4.37;;
7583;SDS011;3833;41.764;26.204;2022-07-05T03:48:50;5.03;;;3.40;;
7583;SDS011;3833;41.764;26.204;2022-07-05T03:51:17;4.40;;;3.63;;
7583;SDS011;3833;41.764;26.204;2022-07-05T03:53:43;4.43;;;3.90;;
7583;SDS011;3833;41.764;26.204;2022-07-05T03:56:10;5.17;;;3.60;;
7583;SDS011;3833;41.764;26.204;2022-07-05T03:58:38;5.50;;;3.53;;
7583;SDS011;3833;41.764;26.204;2022-07-05T04:01:04;8.13;;;4.00;;
7583;SDS011;3833;41.764;26.204;2022-07-05T04:03:31;6.23;;;3.87;;
7583;SDS011;3833;41.764;26.204;2022-07-05T04:05:57;8.37;;;4.30;;
7583;SDS011;3833;41.764;26.204;2022-07-05T04:08:24;7.80;;;4.03;;
7583;SDS011;3833;41.764;26.204;2022-07-05T04:10:51;5.47;;;3.90;;
7583;SDS011;3833;41.764;26.204;2022-07-05T04:13:17;8.43;;;4.30;;
7583;SDS011;3833;41.764;26.204;2022-07-05T04:15:47;12.50;;;4.43;;
7583;SDS011;3833;41.764;26.204;2022-07-05T04:18:13;6.40;;;4.10;;
7583;SDS011;3833;41.764;26.204;2022-07-05T04:20:40;6.07;;;4.17;;
7583;SDS011;3833;41.764;26.204;2022-07-05T04:23:06;6.70;;;4.57;;
7583;SDS011;3833;41.764;26.204;2022-07-05T04:25:33;6.73;;;4.13;;
7583;SDS011;3833;41.764;26.204;2022-07-05T04:28:00;10.57;;;4.40;;
7583;SDS011;3833;41.764;26.204;2022-07-05T04:30:26;5.67;;;4.23;;
7583;SDS011;3833;41.764;26.204;2022-07-05T04:32:54;4.53;;;3.57;;
7583;SDS011;3833;41.764;26.204;2022-07-05T04:35:21;4.60;;;4.10;;
7583;SDS011;3833;41.764;26.204;2022-07-05T04:37:47;11.57;;;4.23;;
7583;SDS011;3833;41.764;26.204;2022-07-05T04:40:14;7.57;;;4.10;;
7583;SDS011;3833;41.764;26.204;2022-07-05T04:42:41;4.83;;;3.77;;
7583;SDS011;3833;41.764;26.204;2022-07-05T04:45:08;3.97;;;3.30;;
7583;SDS011;3833;41.764;26.204;2022-07-05T04:47:34;7.20;;;3.87;;
7583;SDS011;3833;41.764;26.204;2022-07-05T04:50:02;6.80;;;4.23;;
7583;SDS011;3833;41.764;26.204;2022-07-05T04:52:30;8.13;;;3.67;;
7583;SDS011;3833;41.764;26.204;2022-07-05T04:54:57;6.77;;;3.63;;
7583;SDS011;3833;41.764;26.204;2022-07-05T04:57:23;9.20;;;4.23;;
7583;SDS011;3833;41.764;26.204;2022-07-05T04:59:51;10.50;;;4.60;;
7583;SDS011;3833;41.764;26.204;2022-07-05T05:02:18;7.87;;;4.10;;
7583;SDS011;3833;41.764;26.204;2022-07-05T05:04:44;6.13;;;3.63;;
7583;SDS011;3833;41.764;26.204;2022-07-05T05:07:12;5.80;;;3.57;;
7583;SDS011;3833;41.764;26.204;2022-07-05T05:09:39;5.10;;;3.17;;
7583;SDS011;3833;41.764;26.204;2022-07-05T05:12:06;4.90;;;3.73;;
7583;SDS011;3833;41.764;26.204;2022-07-05T05:14:32;6.93;;;4.27;;
7583;SDS011;3833;41.764;26.204;2022-07-05T05:17:01;5.17;;;3.73;;
7583;SDS011;3833;41.764;26.204;2022-07-05T05:19:28;6.50;;;3.70;;
7583;SDS011;3833;41.764;26.204;2022-07-05T05:21:54;5.97;;;3.37;;
7583;SDS011;3833;41.764;26.204;2022-07-05T05:24:22;8.20;;;3.40;;
7583;SDS011;3833;41.764;26.204;2022-07-05T05:26:49;6.23;;;3.63;;
7583;SDS011;3833;41.764;26.204;2022-07-05T05:29:18;5.37;;;3.40;;
7583;SDS011;3833;41.764;26.204;2022-07-05T05:31:46;5.77;;;3.83;;
7583;SDS011;3833;41.764;26.204;2022-07-05T05:34:12;8.47;;;4.30;;
7583;SDS011;3833;41.764;26.204;2022-07-05T05:36:39;6.83;;;4.00;;
7583;SDS011;3833;41.764;26.204;2022-07-05T05:39:05;5.67;;;4.13;;
7583;SDS011;3833;41.764;26.204;2022-07-05T05:41:33;10.37;;;4.10;;
7583;SDS011;3833;41.764;26.204;2022-07-05T05:44:00;10.70;;;4.70;;
7583;SDS011;3833;41.764;26.204;2022-07-05T05:46:27;5.40;;;3.80;;
7583;SDS011;3833;41.764;26.204;2022-07-05T05:48:54;5.70;;;4.83;;
7583;SDS011;3833;41.764;26.204;2022-07-05T05:51:20;4.90;;;4.37;;
7583;SDS011;3833;41.764;26.204;2022-07-05T05:53:47;6.70;;;5.40;;
7583;SDS011;3833;41.764;26.204;2022-07-05T05:56:13;8.27;;;5.07;;
7583;SDS011;3833;41.764;26.204;2022-07-05T05:58:41;8.80;;;4.40;;
7583;SDS011;3833;41.764;26.204;2022-07-05T06:01:08;9.63;;;5.00;;
7583;SDS011;3833;41.764;26.204;2022-07-05T06:03:34;6.43;;;4.87;;
7583;SDS011;3833;41.764;26.204;2022-07-05T06:06:01;12.33;;;5.10;;
7583;SDS011;3833;41.764;26.204;2022-07-05T06:08:30;10.43;;;4.70;;
7583;SDS011;3833;41.764;26.204;2022-07-05T06:10:56;10.53;;;5.43;;
7583;SDS011;3833;41.764;26.204;2022-07-05T06:13:29;7.13;;;4.63;;
7583;SDS011;3833;41.764;26.204;2022-07-05T06:15:57;12.00;;;4.87;;
7583;SDS011;3833;41.764;26.204;2022-07-05T06:18:23;7.33;;;4.43;;
7583;SDS011;3833;41.764;26.204;2022-07-05T06:20:50;6.77;;;4.33;;
7583;SDS011;3833;41.764;26.204;2022-07-05T06:23:17;9.97;;;4.13;;
7583;SDS011;3833;41.764;26.204;2022-07-05T06:25:43;12.17;;;4.27;;
7583;SDS011;3833;41.764;26.204;2022-07-05T06:28:10;7.37;;;4.30;;
7583;SDS011;3833;41.764;26.204;2022-07-05T06:30:37;11.23;;;4.50;;
7583;SDS011;3833;41.764;26.204;2022-07-05T06:33:05;7.53;;;4.70;;
7583;SDS011;3833;41.764;26.204;2022-07-05T06:35:31;10.27;;;4.83;;
7583;SDS011;3833;41.764;26.204;2022-07-05T06:38:00;4.40;;;3.80;;
7583;SDS011;3833;41.764;26.204;2022-07-05T06:40:27;6.53;;;4.53;;
7583;SDS011;3833;41.764;26.204;2022-07-05T06:42:54;5.87;;;4.30;;
7583;SDS011;3833;41.764;26.204;2022-07-05T06:45:21;5.97;;;3.97;;
7583;SDS011;3833;41.764;26.204;2022-07-05T06:47:53;4.33;;;3.93;;
7583;SDS011;3833;41.764;26.204;2022-07-05T06:50:21;9.33;;;4.37;;
7583;SDS011;3833;41.764;26.204;2022-07-05T06:52:48;7.70;;;4.53;;
7583;SDS011;3833;41.764;26.204;2022-07-05T06:55:14;6.10;;;3.97;;
7583;SDS011;3833;41.764;26.204;2022-07-05T06:57:41;5.10;;;4.07;;
7583;SDS011;3833;41.764;26.204;2022-07-05T07:00:09;8.53;;;4.20;;
7583;SDS011;3833;41.764;26.204;2022-07-05T07:02:36;8.27;;;4.67;;
7583;SDS011;3833;41.764;26.204;2022-07-05T07:05:02;6.27;;;4.17;;
7583;SDS011;3833;41.764;26.204;2022-07-05T07:07:31;9.27;;;5.00;;
7583;SDS011;3833;41.764;26.204;2022-07-05T07:10:16;17.67;;;4.83;;
7583;SDS011;3833;41.764;26.204;2022-07-05T07:12:42;6.77;;;3.80;;
7583;SDS011;3833;41.764;26.204;2022-07-05T07:15:09;9.60;;;3.93;;
7583;SDS011;3833;41.764;26.204;2022-07-05T07:17:36;4.57;;;3.67;;
7583;SDS011;3833;41.764;26.204;2022-07-05T07:20:03;4.90;;;3.23;;
7583;SDS011;3833;41.764;26.204;2022-07-05T07:22:29;5.37;;;3.73;;
7583;SDS011;3833;41.764;26.204;2022-07-05T07:24:57;11.77;;;4.30;;
7583;SDS011;3833;41.764;26.204;2022-07-05T07:27:24;7.30;;;4.03;;
7583;SDS011;3833;41.764;26.204;2022-07-05T07:29:50;8.83;;;3.80;;
7583;SDS011;3833;41.764;26.204;2022-07-05T07:32:17;4.27;;;3.53;;
7583;SDS011;3833;41.764;26.204;2022-07-05T07:34:43;8.20;;;3.90;;
7583;SDS011;3833;41.764;26.204;2022-07-05T07:37:10;8.87;;;3.83;;
7583;SDS011;3833;41.764;26.204;2022-07-05T07:39:38;6.13;;;3.53;;
7583;SDS011;3833;41.764;26.204;2022-07-05T07:42:07;6.23;;;3.00;;
7583;SDS011;3833;41.764;26.204;2022-07-05T07:44:33;8.37;;;3.80;;
7583;SDS011;3833;41.764;26.204;2022-07-05T07:47:03;9.20;;;4.83;;
7583;SDS011;3833;41.764;26.204;2022-07-05T07:49:29;3.60;;;3.23;;
7583;SDS011;3833;41.764;26.204;2022-07-05T07:51:56;6.67;;;3.00;;
7583;SDS011;3833;41.764;26.204;2022-07-05T07:54:25;4.30;;;3.00;;
7583;SDS011;3833;41.764;26.204;2022-07-05T07:56:52;3.70;;;3.07;;
7583;SDS011;3833;41.764;26.204;2022-07-05T07:59:19;3.63;;;3.13;;
7583;SDS011;3833;41.764;26.204;2022-07-05T08:01:46;5.37;;;3.73;;
7583;SDS011;3833;41.764;26.204;2022-07-05T08:04:15;6.23;;;3.33;;
7583;SDS011;3833;41.764;26.204;2022-07-05T08:06:42;5.20;;;3.23;;
7583;SDS011;3833;41.764;26.204;2022-07-05T08:09:09;6.77;;;3.63;;
7583;SDS011;3833;41.764;26.204;2022-07-05T08:11:35;4.63;;;3.27;;
7583;SDS011;3833;41.764;26.204;2022-07-05T08:14:02;7.57;;;3.60;;
7583;SDS011;3833;41.764;26.204;2022-07-05T08:16:30;5.33;;;3.23;;
7583;SDS011;3833;41.764;26.204;2022-07-05T08:18:56;4.30;;;3.20;;
7583;SDS011;3833;41.764;26.204;2022-07-05T08:21:55;9.23;;;3.37;;
7583;SDS011;3833;41.764;26.204;2022-07-05T08:24:21;4.23;;;2.80;;
7583;SDS011;3833;41.764;26.204;2022-07-05T08:26:48;5.43;;;2.77;;
7583;SDS011;3833;41.764;26.204;2022-07-05T08:29:14;15.77;;;4.10;;
7583;SDS011;3833;41.764;26.204;2022-07-05T08:31:43;8.00;;;3.67;;
7583;SDS011;3833;41.764;26.204;2022-07-05T08:34:10;5.63;;;3.07;;
7583;SDS011;3833;41.764;26.204;2022-07-05T08:36:37;4.77;;;3.27;;
7583;SDS011;3833;41.764;26.204;2022-07-05T08:39:05;4.83;;;2.80;;
7583;SDS011;3833;41.764;26.204;2022-07-05T08:41:32;7.47;;;3.03;;
7583;SDS011;3833;41.764;26.204;2022-07-05T08:44:00;11.40;;;3.40;;
7583;SDS011;3833;41.764;26.204;2022-07-05T08:46:29;9.60;;;3.00;;
7583;SDS011;3833;41.764;26.204;2022-07-05T08:48:58;4.97;;;2.87;;
7583;SDS011;3833;41.764;26.204;2022-07-05T08:51:25;3.87;;;2.80;;
7583;SDS011;3833;41.764;26.204;2022-07-05T08:53:53;6.27;;;3.20;;
7583;SDS011;3833;41.764;26.204;2022-07-05T08:56:21;3.17;;;2.87;;
7583;SDS011;3833;41.764;26.204;2022-07-05T08:58:48;4.90;;;3.03;;
7583;SDS011;3833;41.764;26.204;2022-07-05T09:01:15;5.83;;;3.30;;
7583;SDS011;3833;41.764;26.204;2022-07-05T09:03:43;6.33;;;2.93;;
7583;SDS011;3833;41.764;26.204;2022-07-05T09:06:12;10.53;;;3.57;;
7583;SDS011;3833;41.764;26.204;2022-07-05T09:08:40;6.83;;;3.67;;
7583;SDS011;3833;41.764;26.204;2022-07-05T09:11:07;4.23;;;3.30;;
7583;SDS011;3833;41.764;26.204;2022-07-05T09:13:35;4.37;;;3.07;;
7583;SDS011;3833;41.764;26.204;2022-07-05T09:16:02;12.63;;;4.33;;
7583;SDS011;3833;41.764;26.204;2022-07-05T09:18:41;8.27;;;3.43;;
7583;SDS011;3833;41.764;26.204;2022-07-05T09:21:16;4.63;;;2.70;;
7583;SDS011;3833;41.764;26.204;2022-07-05T09:23:43;6.30;;;3.33;;
7583;SDS011;3833;41.764;26.204;2022-07-05T09:26:10;5.90;;;3.23;;
7583;SDS011;3833;41.764;26.204;2022-07-05T09:28:37;3.90;;;2.70;;
7583;SDS011;3833;41.764;26.204;2022-07-05T09:31:03;4.20;;;2.90;;
7583;SDS011;3833;41.764;26.204;2022-07-05T09:33:30;6.27;;;3.27;;
7583;SDS011;3833;41.764;26.204;2022-07-05T09:35:57;3.97;;;3.57;;
7583;SDS011;3833;41.764;26.204;2022-07-05T09:38:25;29.80;;;5.27;;
7583;SDS011;3833;41.764;26.204;2022-07-05T09:40:52;2.73;;;2.47;;
7583;SDS011;3833;41.764;26.204;2022-07-05T09:43:19;4.77;;;2.70;;
7583;SDS011;3833;41.764;26.204;2022-07-05T09:45:50;2.87;;;2.50;;
7583;SDS011;3833;41.764;26.204;2022-07-05T09:48:16;4.40;;;3.33;;
7583;SDS011;3833;41.764;26.204;2022-07-05T09:50:43;6.40;;;3.20;;
7583;SDS011;3833;41.764;26.204;2022-07-05T09:53:10;6.83;;;3.07;;
7583;SDS011;3833;41.764;26.204;2022-07-05T09:55:38;9.43;;;3.07;;
7583;SDS011;3833;41.764;26.204;2022-07-05T09:58:05;4.77;;;3.17;;
7583;SDS011;3833;41.764;26.204;2022-07-05T10:00:32;11.50;;;3.43;;
7583;SDS011;3833;41.764;26.204;2022-07-05T10:02:59;6.37;;;2.73;;
7583;SDS011;3833;41.764;26.204;2022-07-05T10:05:28;7.17;;;2.77;;
7583;SDS011;3833;41.764;26.204;2022-07-05T10:07:55;4.33;;;2.60;;
7583;SDS011;3833;41.764;26.204;2022-07-05T10:10:22;3.40;;;2.90;;
7583;SDS011;3833;41.764;26.204;2022-07-05T10:12:51;4.50;;;2.93;;
7583;SDS011;3833;41.764;26.204;2022-07-05T10:15:19;4.87;;;2.90;;
7583;SDS011;3833;41.764;26.204;2022-07-05T10:17:46;2.67;;;2.47;;
7583;SDS011;3833;41.764;26.204;2022-07-05T10:20:16;3.20;;;2.87;;
7583;SDS011;3833;41.764;26.204;2022-07-05T10:22:43;4.87;;;3.20;;
7583;SDS011;3833;41.764;26.204;2022-07-05T10:25:10;4.40;;;2.90;;
7583;SDS011;3833;41.764;26.204;2022-07-05T10:27:36;4.53;;;2.77;;
7583;SDS011;3833;41.764;26.204;2022-07-05T10:30:05;4.60;;;3.10;;
7583;SDS011;3833;41.764;26.204;2022-07-05T10:32:33;11.30;;;3.60;;
7583;SDS011;3833;41.764;26.204;2022-07-05T10:35:00;3.20;;;2.90;;
7583;SDS011;3833;41.764;26.204;2022-07-05T10:37:28;6.37;;;3.33;;
7583;SDS011;3833;41.764;26.204;2022-07-05T10:39:56;5.23;;;3.60;;
7583;SDS011;3833;41.764;26.204;2022-07-05T10:42:23;5.67;;;3.40;;
7583;SDS011;3833;41.764;26.204;2022-07-05T10:44:49;2.97;;;2.67;;
7583;SDS011;3833;41.764;26.204;2022-07-05T10:47:18;6.00;;;2.73;;
7583;SDS011;3833;41.764;26.204;2022-07-05T10:50:00;4.43;;;2.80;;
7583;SDS011;3833;41.764;26.204;2022-07-05T10:52:37;6.80;;;3.20;;
7583;SDS011;3833;41.764;26.204;2022-07-05T11:00:41;7.60;;;3.00;;
7583;SDS011;3833;41.764;26.204;2022-07-05T11:03:11;4.50;;;3.17;;
7583;SDS011;3833;41.764;26.204;2022-07-05T11:05:57;4.43;;;3.27;;
7583;SDS011;3833;41.764;26.204;2022-07-05T11:08:24;4.60;;;3.13;;
7583;SDS011;3833;41.764;26.204;2022-07-05T11:13:39;2.80;;;2.60;;
7583;SDS011;3833;41.764;26.204;2022-07-05T11:16:21;5.90;;;3.37;;
7583;SDS011;3833;41.764;26.204;2022-07-05T11:18:50;10.77;;;3.63;;
7583;SDS011;3833;41.764;26.204;2022-07-05T11:21:17;5.32;;;3.78;;
7583;SDS011;3833;41.764;26.204;2022-07-05T11:23:44;4.05;;;2.95;;
7583;SDS011;3833;41.764;26.204;2022-07-05T11:26:10;9.20;;;3.00;;
7583;SDS011;3833;41.764;26.204;2022-07-05T11:28:41;5.60;;;3.03;;
7583;SDS011;3833;41.764;26.204;2022-07-05T11:31:08;4.10;;;3.33;;
7583;SDS011;3833;41.764;26.204;2022-07-05T11:33:36;4.00;;;3.13;;
7583;SDS011;3833;41.764;26.204;2022-07-05T11:36:05;6.47;;;2.90;;
7583;SDS011;3833;41.764;26.204;2022-07-05T11:38:33;4.97;;;3.23;;
7583;SDS011;3833;41.764;26.204;2022-07-05T11:41:10;6.53;;;3.30;;
7583;SDS011;3833;41.764;26.204;2022-07-05T11:43:37;3.70;;;3.27;;
7583;SDS011;3833;41.764;26.204;2022-07-05T11:46:03;5.27;;;3.20;;
7583;SDS011;3833;41.764;26.204;2022-07-05T11:48:30;5.50;;;3.17;;
7583;SDS011;3833;41.764;26.204;2022-07-05T11:51:12;4.57;;;3.40;;
7583;SDS011;3833;41.764;26.204;2022-07-05T11:53:39;3.37;;;3.07;;
7583;SDS011;3833;41.764;26.204;2022-07-05T11:56:06;7.37;;;2.70;;
7583;SDS011;3833;41.764;26.204;2022-07-05T11:58:33;3.47;;;3.13;;
7583;SDS011;3833;41.764;26.204;2022-07-05T12:00:59;5.77;;;2.90;;
7583;SDS011;3833;41.764;26.204;2022-07-05T12:03:26;4.10;;;2.87;;
7583;SDS011;3833;41.764;26.204;2022-07-05T12:05:53;6.67;;;3.10;;
7583;SDS011;3833;41.764;26.204;2022-07-05T12:08:21;3.57;;;3.10;;
7583;SDS011;3833;41.764;26.204;2022-07-05T12:10:48;4.23;;;3.13;;
7583;SDS011;3833;41.764;26.204;2022-07-05T12:13:41;6.67;;;3.10;;
7583;SDS011;3833;41.764;26.204;2022-07-05T12:16:08;3.93;;;3.03;;
7583;SDS011;3833;41.764;26.204;2022-07-05T12:18:45;3.50;;;3.20;;
7583;SDS011;3833;41.764;26.204;2022-07-05T12:21:12;7.27;;;3.20;;
7583;SDS011;3833;41.764;26.204;2022-07-05T12:23:42;4.97;;;2.93;;
7583;SDS011;3833;41.764;26.204;2022-07-05T12:26:10;4.17;;;3.00;;
7583;SDS011;3833;41.764;26.204;2022-07-05T12:28:36;3.93;;;2.83;;
7583;SDS011;3833;41.764;26.204;2022-07-05T12:31:13;7.57;;;3.27;;
7583;SDS011;3833;41.764;26.204;2022-07-05T12:33:40;4.90;;;3.37;;
7583;SDS011;3833;41.764;26.204;2022-07-05T12:36:10;9.40;;;3.60;;
7583;SDS011;3833;41.764;26.204;2022-07-05T12:38:37;4.57;;;3.37;;
7583;SDS011;3833;41.764;26.204;2022-07-05T12:41:05;5.17;;;3.70;;
7583;SDS011;3833;41.764;26.204;2022-07-05T12:43:31;6.33;;;3.73;;
7583;SDS011;3833;41.764;26.204;2022-07-05T12:45:59;7.57;;;3.83;;
7583;SDS011;3833;41.764;26.204;2022-07-05T12:48:29;5.83;;;3.83;;
7583;SDS011;3833;41.764;26.204;2022-07-05T12:50:56;5.47;;;3.20;;
7583;SDS011;3833;41.764;26.204;2022-07-05T12:53:23;3.50;;;3.17;;
7583;SDS011;3833;41.764;26.204;2022-07-05T12:56:08;5.47;;;3.63;;
7583;SDS011;3833;41.764;26.204;2022-07-05T12:58:53;6.83;;;4.03;;
7583;SDS011;3833;41.764;26.204;2022-07-05T13:01:26;4.07;;;3.67;;
7583;SDS011;3833;41.764;26.204;2022-07-05T13:03:57;4.83;;;4.33;;
7583;SDS011;3833;41.764;26.204;2022-07-05T13:06:38;7.83;;;3.93;;
7583;SDS011;3833;41.764;26.204;2022-07-05T13:09:05;9.53;;;4.13;;
7583;SDS011;3833;41.764;26.204;2022-07-05T13:11:33;6.53;;;4.50;;
7583;SDS011;3833;41.764;26.204;2022-07-05T13:13:59;7.53;;;4.37;;
7583;SDS011;3833;41.764;26.204;2022-07-05T13:16:26;4.77;;;3.60;;
7583;SDS011;3833;41.764;26.204;2022-07-05T13:18:52;5.23;;;4.40;;
7583;SDS011;3833;41.764;26.204;2022-07-05T13:21:19;28.33;;;6.90;;
7583;SDS011;3833;41.764;26.204;2022-07-05T13:23:45;4.43;;;3.70;;
7583;SDS011;3833;41.764;26.204;2022-07-05T13:26:15;4.00;;;3.60;;
7583;SDS011;3833;41.764;26.204;2022-07-05T13:28:43;6.27;;;3.63;;
7583;SDS011;3833;41.764;26.204;2022-07-05T13:31:09;5.10;;;3.40;;
7583;SDS011;3833;41.764;26.204;2022-07-05T13:33:38;5.80;;;3.60;;
7583;SDS011;3833;41.764;26.204;2022-07-05T13:36:07;5.90;;;3.90;;
7583;SDS011;3833;41.764;26.204;2022-07-05T13:38:34;3.60;;;3.30;;
7583;SDS011;3833;41.764;26.204;2022-07-05T13:41:01;5.13;;;3.10;;
7583;SDS011;3833;41.764;26.204;2022-07-05T13:43:28;8.57;;;3.23;;
7583;SDS011;3833;41.764;26.204;2022-07-05T13:45:55;4.93;;;3.33;;
7583;SDS011;3833;41.764;26.204;2022-07-05T13:48:22;34.03;;;4.73;;
7583;SDS011;3833;41.764;26.204;2022-07-05T13:50:49;6.67;;;3.53;;
7583;SDS011;3833;41.764;26.204;2022-07-05T13:53:15;7.43;;;3.80;;
7583;SDS011;3833;41.764;26.204;2022-07-05T13:55:42;3.78;;;3.47;;
7583;SDS011;3833;41.764;26.204;2022-07-05T13:58:08;18.10;;;9.13;;
7583;SDS011;3833;41.764;26.204;2022-07-05T14:00:35;4.47;;;3.30;;
7583;SDS011;3833;41.764;26.204;2022-07-05T14:03:04;7.60;;;4.00;;
7583;SDS011;3833;41.764;26.204;2022-07-05T14:05:30;4.60;;;3.43;;
7583;SDS011;3833;41.764;26.204;2022-07-05T14:07:59;8.03;;;3.70;;
7583;SDS011;3833;41.764;26.204;2022-07-05T14:10:29;4.53;;;3.17;;
7583;SDS011;3833;41.764;26.204;2022-07-05T14:12:55;4.63;;;3.47;;
7583;SDS011;3833;41.764;26.204;2022-07-05T14:15:22;4.40;;;3.00;;
7583;SDS011;3833;41.764;26.204;2022-07-05T14:17:48;5.15;;;3.40;;
7583;SDS011;3833;41.764;26.204;2022-07-05T14:20:16;5.83;;;3.53;;
7583;SDS011;3833;41.764;26.204;2022-07-05T14:22:43;5.97;;;3.10;;
7583;SDS011;3833;41.764;26.204;2022-07-05T14:25:09;4.83;;;3.27;;
7583;SDS011;3833;41.764;26.204;2022-07-05T14:27:39;6.83;;;3.27;;
7583;SDS011;3833;41.764;26.204;2022-07-05T14:30:08;4.80;;;3.13;;
7583;SDS011;3833;41.764;26.204;2022-07-05T14:32:36;4.57;;;3.33;;
7583;SDS011;3833;41.764;26.204;2022-07-05T14:35:02;4.03;;;3.43;;
7583;SDS011;3833;41.764;26.204;2022-07-05T14:37:30;5.17;;;3.70;;
7583;SDS011;3833;41.764;26.204;2022-07-05T14:39:57;5.87;;;3.63;;
7583;SDS011;3833;41.764;26.204;2022-07-05T14:42:24;7.70;;;3.10;;
7583;SDS011;3833;41.764;26.204;2022-07-05T14:44:51;6.53;;;4.10;;
7583;SDS011;3833;41.764;26.204;2022-07-05T14:47:19;5.40;;;2.97;;
7583;SDS011;3833;41.764;26.204;2022-07-05T14:49:45;6.67;;;3.23;;
7583;SDS011;3833;41.764;26.204;2022-07-05T14:52:12;5.47;;;3.10;;
7583;SDS011;3833;41.764;26.204;2022-07-05T14:54:40;3.00;;;2.80;;
7583;SDS011;3833;41.764;26.204;2022-07-05T14:57:06;3.67;;;2.83;;
7583;SDS011;3833;41.764;26.204;2022-07-05T14:59:33;6.37;;;3.40;;
7583;SDS011;3833;41.764;26.204;2022-07-05T15:01:59;6.60;;;3.30;;
7583;SDS011;3833;41.764;26.204;2022-07-05T15:04:26;5.17;;;3.10;;
7583;SDS011;3833;41.764;26.204;2022-07-05T15:06:52;4.13;;;3.23;;
7583;SDS011;3833;41.764;26.204;2022-07-05T15:09:19;5.70;;;2.90;;
7583;SDS011;3833;41.764;26.204;2022-07-05T15:11:47;8.10;;;3.40;;